sensor_id;sensor_type;location;lat;lon;timestamp;P1;durP1;ratioP1;P2;durP2;ratioP2
4021;SDS011;2025;48.260;16.432;2022-08-03T00:00:18;2.30;;;2.20;;
4021;SDS011;2025;48.260;16.432;2022-08-03T00:02:48;2.40;;;2.30;;
4021;SDS011;2025;48.260;16.432;2022-08-03T00:05:15;2.17;;;2.08;;
4021;SDS011;2025;48.260;16.432;2022-08-03T00:07:42;2.00;;;1.90;;
4021;SDS011;2025;48.260;16.432;2022-08-03T00:10:09;2.25;;;2.13;;
4021;SDS011;2025;48.260;16.432;2022-08-03T00:12:36;2.20;;;2.10;;
4021;SDS011;2025;48.260;16.432;2022-08-03T00:15:04;2.45;;;2.20;;
4021;SDS011;2025;48.260;16.432;2022-08-03T00:17:33;2.40;;;2.15;;
4021;SDS011;2025;48.260;16.432;2022-08-03T00:20:00;2.47;;;2.38;;
4021;SDS011;2025;48.260;16.432;2022-08-03T00:22:27;2.22;;;2.13;;
4021;SDS011;2025;48.260;16.432;2022-08-03T00:24:54;2.10;;;2.00;;
4021;SDS011;2025;48.260;16.432;2022-08-03T00:27:21;2.60;;;2.50;;
4021;SDS011;2025;48.260;16.432;2022-08-03T00:29:47;2.20;;;1.98;;
4021;SDS011;2025;48.260;16.432;2022-08-03T00:32:14;2.35;;;2.10;;
4021;SDS011;2025;48.260;16.432;2022-08-03T00:34:43;3.50;;;2.30;;
4021;SDS011;2025;48.260;16.432;2022-08-03T00:37:10;2.40;;;2.30;;
4021;SDS011;2025;48.260;16.432;2022-08-03T00:39:37;2.85;;;2.75;;
4021;SDS011;2025;48.260;16.432;2022-08-03T00:42:05;2.72;;;2.53;;
4021;SDS011;2025;48.260;16.432;2022-08-03T00:44:37;2.75;;;2.45;;
4021;SDS011;2025;48.260;16.432;2022-08-03T00:47:05;2.28;;;2.17;;
4021;SDS011;2025;48.260;16.432;2022-08-03T00:49:32;2.88;;;2.67;;
4021;SDS011;2025;48.260;16.432;2022-08-03T00:52:01;2.67;;;2.58;;
4021;SDS011;2025;48.260;16.432;2022-08-03T00:54:28;2.80;;;2.70;;
4021;SDS011;2025;48.260;16.432;2022-08-03T00:56:55;4.43;;;2.55;;
4021;SDS011;2025;48.260;16.432;2022-08-03T00:59:22;2.60;;;2.40;;
4021;SDS011;2025;48.260;16.432;2022-08-03T01:01:49;2.80;;;2.22;;
4021;SDS011;2025;48.260;16.432;2022-08-03T01:04:16;2.60;;;2.40;;
4021;SDS011;2025;48.260;16.432;2022-08-03T01:06:45;2.50;;;2.40;;
4021;SDS011;2025;48.260;16.432;2022-08-03T01:09:21;2.63;;;2.40;;
4021;SDS011;2025;48.260;16.432;2022-08-03T01:11:58;2.60;;;2.40;;
4021;SDS011;2025;48.260;16.432;2022-08-03T01:14:31;3.05;;;2.85;;
4021;SDS011;2025;48.260;16.432;2022-08-03T01:17:04;2.55;;;2.25;;
4021;SDS011;2025;48.260;16.432;2022-08-03T01:19:40;2.78;;;2.67;;
4021;SDS011;2025;48.260;16.432;2022-08-03T01:22:22;2.72;;;2.63;;
4021;SDS011;2025;48.260;16.432;2022-08-03T01:25:08;3.03;;;2.83;;
4021;SDS011;2025;48.260;16.432;2022-08-03T01:27:48;3.15;;;3.05;;
4021;SDS011;2025;48.260;16.432;2022-08-03T01:30:29;3.65;;;2.97;;
4021;SDS011;2025;48.260;16.432;2022-08-03T01:32:59;6.38;;;2.83;;
4021;SDS011;2025;48.260;16.432;2022-08-03T01:35:31;2.67;;;2.58;;
4021;SDS011;2025;48.260;16.432;2022-08-03T01:40:30;3.00;;;2.90;;
4021;SDS011;2025;48.260;16.432;2022-08-03T01:43:00;3.55;;;3.15;;
4021;SDS011;2025;48.260;16.432;2022-08-03T01:45:33;3.45;;;3.30;;
4021;SDS011;2025;48.260;16.432;2022-08-03T01:48:02;3.30;;;3.10;;
4021;SDS011;2025;48.260;16.432;2022-08-03T01:50:32;3.30;;;3.20;;
4021;SDS011;2025;48.260;16.432;2022-08-03T01:53:00;3.58;;;3.38;;
4021;SDS011;2025;48.260;16.432;2022-08-03T01:55:27;3.35;;;3.15;;
4021;SDS011;2025;48.260;16.432;2022-08-03T01:57:57;3.70;;;3.40;;
4021;SDS011;2025;48.260;16.432;2022-08-03T02:00:27;3.30;;;3.20;;
4021;SDS011;2025;48.260;16.432;2022-08-03T02:02:56;3.28;;;2.97;;
4021;SDS011;2025;48.260;16.432;2022-08-03T02:05:24;3.25;;;3.05;;
4021;SDS011;2025;48.260;16.432;2022-08-03T02:07:53;3.42;;;3.22;;
4021;SDS011;2025;48.260;16.432;2022-08-03T02:10:21;3.25;;;3.13;;
4021;SDS011;2025;48.260;16.432;2022-08-03T02:12:49;3.53;;;3.22;;
4021;SDS011;2025;48.260;16.432;2022-08-03T02:15:18;3.60;;;3.30;;
4021;SDS011;2025;48.260;16.432;2022-08-03T02:17:47;3.70;;;3.40;;
4021;SDS011;2025;48.260;16.432;2022-08-03T02:20:16;3.65;;;3.45;;
4021;SDS011;2025;48.260;16.432;2022-08-03T02:22:44;3.50;;;3.40;;
4021;SDS011;2025;48.260;16.432;2022-08-03T02:25:13;3.47;;;3.28;;
4021;SDS011;2025;48.260;16.432;2022-08-03T02:27:47;4.93;;;3.25;;
4021;SDS011;2025;48.260;16.432;2022-08-03T02:30:17;3.38;;;3.08;;
4021;SDS011;2025;48.260;16.432;2022-08-03T02:32:47;3.72;;;3.53;;
4021;SDS011;2025;48.260;16.432;2022-08-03T02:35:21;3.60;;;3.45;;
4021;SDS011;2025;48.260;16.432;2022-08-03T02:37:52;3.65;;;3.45;;
4021;SDS011;2025;48.260;16.432;2022-08-03T02:40:25;4.75;;;3.70;;
4021;SDS011;2025;48.260;16.432;2022-08-03T02:42:56;3.65;;;3.55;;
4021;SDS011;2025;48.260;16.432;2022-08-03T02:45:38;3.70;;;3.50;;
4021;SDS011;2025;48.260;16.432;2022-08-03T02:48:09;4.05;;;3.33;;
4021;SDS011;2025;48.260;16.432;2022-08-03T02:53:09;4.90;;;3.88;;
4021;SDS011;2025;48.260;16.432;2022-08-03T02:55:38;3.92;;;3.72;;
4021;SDS011;2025;48.260;16.432;2022-08-03T02:58:07;3.72;;;3.53;;
4021;SDS011;2025;48.260;16.432;2022-08-03T03:00:35;6.40;;;3.85;;
4021;SDS011;2025;48.260;16.432;2022-08-03T03:03:04;4.30;;;4.00;;
4021;SDS011;2025;48.260;16.432;2022-08-03T03:05:33;5.10;;;4.38;;
4021;SDS011;2025;48.260;16.432;2022-08-03T03:08:02;3.85;;;3.60;;
4021;SDS011;2025;48.260;16.432;2022-08-03T03:10:30;4.28;;;4.00;;
4021;SDS011;2025;48.260;16.432;2022-08-03T03:12:57;4.25;;;4.05;;
4021;SDS011;2025;48.260;16.432;2022-08-03T03:15:27;4.20;;;4.00;;
4021;SDS011;2025;48.260;16.432;2022-08-03T03:17:55;4.32;;;4.05;;
4021;SDS011;2025;48.260;16.432;2022-08-03T03:20:24;4.70;;;4.40;;
4021;SDS011;2025;48.260;16.432;2022-08-03T03:22:53;4.50;;;4.30;;
4021;SDS011;2025;48.260;16.432;2022-08-03T03:25:23;5.95;;;4.38;;
4021;SDS011;2025;48.260;16.432;2022-08-03T03:27:50;4.78;;;4.47;;
4021;SDS011;2025;48.260;16.432;2022-08-03T03:30:17;4.65;;;4.38;;
4021;SDS011;2025;48.260;16.432;2022-08-03T03:32:44;5.45;;;4.00;;
4021;SDS011;2025;48.260;16.432;2022-08-03T03:35:12;6.90;;;4.22;;
4021;SDS011;2025;48.260;16.432;2022-08-03T03:37:39;5.13;;;4.75;;
4021;SDS011;2025;48.260;16.432;2022-08-03T03:40:06;4.97;;;4.68;;
4021;SDS011;2025;48.260;16.432;2022-08-03T03:42:36;5.63;;;4.72;;
4021;SDS011;2025;48.260;16.432;2022-08-03T03:45:03;5.97;;;5.00;;
4021;SDS011;2025;48.260;16.432;2022-08-03T03:47:32;5.05;;;4.75;;
4021;SDS011;2025;48.260;16.432;2022-08-03T03:49:59;5.20;;;4.88;;
4021;SDS011;2025;48.260;16.432;2022-08-03T03:52:27;4.93;;;4.70;;
4021;SDS011;2025;48.260;16.432;2022-08-03T03:54:54;5.55;;;5.05;;
4021;SDS011;2025;48.260;16.432;2022-08-03T03:57:21;5.20;;;4.80;;
4021;SDS011;2025;48.260;16.432;2022-08-03T03:59:49;5.30;;;4.80;;
4021;SDS011;2025;48.260;16.432;2022-08-03T04:02:17;6.15;;;4.50;;
4021;SDS011;2025;48.260;16.432;2022-08-03T04:04:44;5.38;;;4.95;;
4021;SDS011;2025;48.260;16.432;2022-08-03T04:07:28;5.65;;;5.32;;
4021;SDS011;2025;48.260;16.432;2022-08-03T04:10:24;5.32;;;5.03;;
4021;SDS011;2025;48.260;16.432;2022-08-03T04:13:11;5.90;;;5.45;;
4021;SDS011;2025;48.260;16.432;2022-08-03T04:15:43;5.70;;;5.40;;
4021;SDS011;2025;48.260;16.432;2022-08-03T04:18:13;8.13;;;6.35;;
4021;SDS011;2025;48.260;16.432;2022-08-03T04:20:42;7.20;;;5.30;;
4021;SDS011;2025;48.260;16.432;2022-08-03T04:23:13;7.32;;;6.05;;
4021;SDS011;2025;48.260;16.432;2022-08-03T04:25:41;5.97;;;5.43;;
4021;SDS011;2025;48.260;16.432;2022-08-03T04:28:10;5.50;;;5.20;;
4021;SDS011;2025;48.260;16.432;2022-08-03T04:30:37;5.53;;;5.10;;
4021;SDS011;2025;48.260;16.432;2022-08-03T04:33:13;5.82;;;5.53;;
4021;SDS011;2025;48.260;16.432;2022-08-03T04:35:42;5.30;;;4.95;;
4021;SDS011;2025;48.260;16.432;2022-08-03T04:38:10;7.15;;;5.78;;
4021;SDS011;2025;48.260;16.432;2022-08-03T04:40:40;5.80;;;5.30;;
4021;SDS011;2025;48.260;16.432;2022-08-03T04:43:09;5.85;;;5.38;;
4021;SDS011;2025;48.260;16.432;2022-08-03T04:45:38;5.72;;;4.95;;
4021;SDS011;2025;48.260;16.432;2022-08-03T04:48:06;6.00;;;5.68;;
4021;SDS011;2025;48.260;16.432;2022-08-03T04:50:35;11.52;;;6.43;;
4021;SDS011;2025;48.260;16.432;2022-08-03T04:53:02;5.78;;;5.47;;
4021;SDS011;2025;48.260;16.432;2022-08-03T04:55:31;6.88;;;4.97;;
4021;SDS011;2025;48.260;16.432;2022-08-03T04:57:59;5.47;;;5.00;;
4021;SDS011;2025;48.260;16.432;2022-08-03T05:00:27;5.35;;;4.85;;
4021;SDS011;2025;48.260;16.432;2022-08-03T05:02:54;4.97;;;4.53;;
4021;SDS011;2025;48.260;16.432;2022-08-03T05:05:22;6.72;;;4.78;;
4021;SDS011;2025;48.260;16.432;2022-08-03T05:07:50;5.13;;;4.63;;
4021;SDS011;2025;48.260;16.432;2022-08-03T05:10:17;6.03;;;4.88;;
4021;SDS011;2025;48.260;16.432;2022-08-03T05:12:44;4.80;;;4.38;;
4021;SDS011;2025;48.260;16.432;2022-08-03T05:15:13;8.45;;;4.65;;
4021;SDS011;2025;48.260;16.432;2022-08-03T05:17:40;5.03;;;4.07;;
4021;SDS011;2025;48.260;16.432;2022-08-03T05:20:07;4.50;;;4.20;;
4021;SDS011;2025;48.260;16.432;2022-08-03T05:22:35;4.30;;;4.10;;
4021;SDS011;2025;48.260;16.432;2022-08-03T05:25:04;4.10;;;3.90;;
4021;SDS011;2025;48.260;16.432;2022-08-03T05:27:31;3.55;;;3.40;;
4021;SDS011;2025;48.260;16.432;2022-08-03T05:29:59;4.22;;;3.90;;
4021;SDS011;2025;48.260;16.432;2022-08-03T05:32:26;4.10;;;3.70;;
4021;SDS011;2025;48.260;16.432;2022-08-03T05:34:53;7.70;;;4.22;;
4021;SDS011;2025;48.260;16.432;2022-08-03T05:37:20;4.55;;;3.70;;
4021;SDS011;2025;48.260;16.432;2022-08-03T05:39:47;3.88;;;3.50;;
4021;SDS011;2025;48.260;16.432;2022-08-03T05:42:15;3.60;;;3.30;;
4021;SDS011;2025;48.260;16.432;2022-08-03T05:44:43;3.65;;;3.35;;
4021;SDS011;2025;48.260;16.432;2022-08-03T05:47:09;5.07;;;3.20;;
4021;SDS011;2025;48.260;16.432;2022-08-03T05:49:36;3.67;;;3.47;;
4021;SDS011;2025;48.260;16.432;2022-08-03T05:52:03;4.25;;;3.58;;
4021;SDS011;2025;48.260;16.432;2022-08-03T05:54:30;7.20;;;3.78;;
4021;SDS011;2025;48.260;16.432;2022-08-03T05:56:57;11.00;;;3.97;;
4021;SDS011;2025;48.260;16.432;2022-08-03T05:59:26;4.85;;;4.45;;
4021;SDS011;2025;48.260;16.432;2022-08-03T06:01:53;8.02;;;3.80;;
4021;SDS011;2025;48.260;16.432;2022-08-03T06:04:20;3.58;;;3.38;;
4021;SDS011;2025;48.260;16.432;2022-08-03T06:06:47;8.20;;;4.03;;
4021;SDS011;2025;48.260;16.432;2022-08-03T06:09:14;4.57;;;3.80;;
4021;SDS011;2025;48.260;16.432;2022-08-03T06:11:42;6.13;;;3.58;;
4021;SDS011;2025;48.260;16.432;2022-08-03T06:14:09;3.80;;;3.50;;
4021;SDS011;2025;48.260;16.432;2022-08-03T06:16:37;4.82;;;3.40;;
4021;SDS011;2025;48.260;16.432;2022-08-03T06:19:04;4.93;;;3.00;;
4021;SDS011;2025;48.260;16.432;2022-08-03T06:21:31;3.20;;;2.90;;
4021;SDS011;2025;48.260;16.432;2022-08-03T06:23:58;4.25;;;2.60;;
4021;SDS011;2025;48.260;16.432;2022-08-03T06:26:25;3.00;;;2.80;;
4021;SDS011;2025;48.260;16.432;2022-08-03T06:28:53;3.03;;;2.70;;
4021;SDS011;2025;48.260;16.432;2022-08-03T06:31:21;6.20;;;2.78;;
4021;SDS011;2025;48.260;16.432;2022-08-03T06:33:51;3.70;;;2.67;;
4021;SDS011;2025;48.260;16.432;2022-08-03T06:36:18;2.72;;;2.53;;
4021;SDS011;2025;48.260;16.432;2022-08-03T06:38:45;3.75;;;2.78;;
4021;SDS011;2025;48.260;16.432;2022-08-03T06:41:12;2.60;;;2.40;;
4021;SDS011;2025;48.260;16.432;2022-08-03T06:43:39;2.95;;;2.70;;
4021;SDS011;2025;48.260;16.432;2022-08-03T06:46:06;2.97;;;2.47;;
4021;SDS011;2025;48.260;16.432;2022-08-03T06:48:35;4.18;;;2.75;;
4021;SDS011;2025;48.260;16.432;2022-08-03T06:51:03;3.40;;;2.40;;
4021;SDS011;2025;48.260;16.432;2022-08-03T06:53:30;3.03;;;2.65;;
4021;SDS011;2025;48.260;16.432;2022-08-03T06:55:57;3.05;;;2.75;;
4021;SDS011;2025;48.260;16.432;2022-08-03T06:58:24;2.88;;;2.63;;
4021;SDS011;2025;48.260;16.432;2022-08-03T07:00:51;5.57;;;2.60;;
4021;SDS011;2025;48.260;16.432;2022-08-03T07:03:18;2.80;;;2.58;;
4021;SDS011;2025;48.260;16.432;2022-08-03T07:05:45;3.95;;;2.60;;
4021;SDS011;2025;48.260;16.432;2022-08-03T07:08:14;3.10;;;2.60;;
4021;SDS011;2025;48.260;16.432;2022-08-03T07:10:41;3.38;;;2.50;;
4021;SDS011;2025;48.260;16.432;2022-08-03T07:13:11;4.15;;;2.20;;
4021;SDS011;2025;48.260;16.432;2022-08-03T07:15:38;2.35;;;2.15;;
4021;SDS011;2025;48.260;16.432;2022-08-03T07:18:05;3.38;;;2.50;;
4021;SDS011;2025;48.260;16.432;2022-08-03T07:20:33;9.35;;;2.50;;
4021;SDS011;2025;48.260;16.432;2022-08-03T07:22:59;4.30;;;2.33;;
4021;SDS011;2025;48.260;16.432;2022-08-03T07:25:28;6.47;;;2.60;;
4021;SDS011;2025;48.260;16.432;2022-08-03T07:27:55;6.90;;;2.35;;
4021;SDS011;2025;48.260;16.432;2022-08-03T07:30:22;8.45;;;2.88;;
4021;SDS011;2025;48.260;16.432;2022-08-03T07:32:49;7.75;;;2.78;;
4021;SDS011;2025;48.260;16.432;2022-08-03T07:35:16;10.38;;;2.70;;
4021;SDS011;2025;48.260;16.432;2022-08-03T07:37:43;6.82;;;2.28;;
4021;SDS011;2025;48.260;16.432;2022-08-03T07:40:10;6.93;;;2.70;;
4021;SDS011;2025;48.260;16.432;2022-08-03T07:42:39;6.35;;;2.42;;
4021;SDS011;2025;48.260;16.432;2022-08-03T07:45:06;6.50;;;2.70;;
4021;SDS011;2025;48.260;16.432;2022-08-03T07:47:34;5.82;;;2.58;;
4021;SDS011;2025;48.260;16.432;2022-08-03T07:50:05;5.57;;;2.38;;
4021;SDS011;2025;48.260;16.432;2022-08-03T07:52:33;6.18;;;2.70;;
4021;SDS011;2025;48.260;16.432;2022-08-03T07:55:18;10.48;;;2.58;;
4021;SDS011;2025;48.260;16.432;2022-08-03T07:57:47;2.50;;;2.30;;
4021;SDS011;2025;48.260;16.432;2022-08-03T08:00:31;1.85;;;1.60;;
4021;SDS011;2025;48.260;16.432;2022-08-03T08:02:58;6.95;;;2.55;;
4021;SDS011;2025;48.260;16.432;2022-08-03T08:05:25;5.13;;;2.50;;
4021;SDS011;2025;48.260;16.432;2022-08-03T08:07:53;5.50;;;2.20;;
4021;SDS011;2025;48.260;16.432;2022-08-03T08:10:20;8.57;;;2.45;;
4021;SDS011;2025;48.260;16.432;2022-08-03T08:12:49;4.95;;;2.58;;
4021;SDS011;2025;48.260;16.432;2022-08-03T08:15:16;3.35;;;2.30;;
4021;SDS011;2025;48.260;16.432;2022-08-03T08:17:43;8.27;;;2.20;;
4021;SDS011;2025;48.260;16.432;2022-08-03T08:20:14;2.78;;;2.10;;
4021;SDS011;2025;48.260;16.432;2022-08-03T08:22:43;2.53;;;2.38;;
4021;SDS011;2025;48.260;16.432;2022-08-03T08:25:10;2.30;;;2.10;;
4021;SDS011;2025;48.260;16.432;2022-08-03T08:27:40;3.45;;;1.95;;
4021;SDS011;2025;48.260;16.432;2022-08-03T08:30:12;3.53;;;1.75;;
4021;SDS011;2025;48.260;16.432;2022-08-03T08:32:42;3.22;;;2.90;;
4021;SDS011;2025;48.260;16.432;2022-08-03T08:35:09;8.43;;;2.47;;
4021;SDS011;2025;48.260;16.432;2022-08-03T08:37:37;12.38;;;2.10;;
4021;SDS011;2025;48.260;16.432;2022-08-03T08:40:05;2.70;;;2.17;;
4021;SDS011;2025;48.260;16.432;2022-08-03T08:42:34;4.47;;;2.38;;
4021;SDS011;2025;48.260;16.432;2022-08-03T08:45:03;4.80;;;2.40;;
4021;SDS011;2025;48.260;16.432;2022-08-03T08:47:35;3.22;;;1.75;;
4021;SDS011;2025;48.260;16.432;2022-08-03T08:50:04;3.75;;;2.55;;
4021;SDS011;2025;48.260;16.432;2022-08-03T08:52:32;7.82;;;2.30;;
4021;SDS011;2025;48.260;16.432;2022-08-03T08:55:01;5.13;;;2.05;;
4021;SDS011;2025;48.260;16.432;2022-08-03T08:57:29;2.17;;;2.00;;
4021;SDS011;2025;48.260;16.432;2022-08-03T08:59:58;4.20;;;2.00;;
4021;SDS011;2025;48.260;16.432;2022-08-03T09:02:28;2.38;;;2.00;;
4021;SDS011;2025;48.260;16.432;2022-08-03T09:04:57;5.22;;;1.92;;
4021;SDS011;2025;48.260;16.432;2022-08-03T09:07:26;2.10;;;2.00;;
4021;SDS011;2025;48.260;16.432;2022-08-03T09:09:54;2.30;;;2.10;;
4021;SDS011;2025;48.260;16.432;2022-08-03T09:12:21;4.18;;;2.05;;
4021;SDS011;2025;48.260;16.432;2022-08-03T09:14:48;1.90;;;1.80;;
4021;SDS011;2025;48.260;16.432;2022-08-03T09:17:15;4.32;;;1.70;;
4021;SDS011;2025;48.260;16.432;2022-08-03T09:19:46;1.95;;;1.50;;
4021;SDS011;2025;48.260;16.432;2022-08-03T09:22:33;2.60;;;1.45;;
4021;SDS011;2025;48.260;16.432;2022-08-03T09:25:01;3.17;;;1.60;;
4021;SDS011;2025;48.260;16.432;2022-08-03T09:27:40;1.77;;;1.38;;
4021;SDS011;2025;48.260;16.432;2022-08-03T09:30:11;4.60;;;1.50;;
4021;SDS011;2025;48.260;16.432;2022-08-03T09:35:10;1.40;;;1.30;;
4021;SDS011;2025;48.260;16.432;2022-08-03T09:37:38;3.58;;;1.80;;
4021;SDS011;2025;48.260;16.432;2022-08-03T09:40:06;5.72;;;2.00;;
4021;SDS011;2025;48.260;16.432;2022-08-03T09:42:33;2.25;;;1.75;;
4021;SDS011;2025;48.260;16.432;2022-08-03T09:45:03;1.60;;;1.50;;
4021;SDS011;2025;48.260;16.432;2022-08-03T09:47:31;2.67;;;1.85;;
4021;SDS011;2025;48.260;16.432;2022-08-03T09:50:00;1.48;;;1.30;;
4021;SDS011;2025;48.260;16.432;2022-08-03T09:52:30;3.10;;;1.58;;
4021;SDS011;2025;48.260;16.432;2022-08-03T09:54:58;2.13;;;1.25;;
4021;SDS011;2025;48.260;16.432;2022-08-03T09:57:27;2.15;;;1.40;;
4021;SDS011;2025;48.260;16.432;2022-08-03T10:00:06;3.90;;;1.45;;
4021;SDS011;2025;48.260;16.432;2022-08-03T10:02:36;1.70;;;1.60;;
4021;SDS011;2025;48.260;16.432;2022-08-03T10:05:04;2.65;;;1.20;;
4021;SDS011;2025;48.260;16.432;2022-08-03T10:07:42;2.35;;;1.60;;
4021;SDS011;2025;48.260;16.432;2022-08-03T10:10:13;1.60;;;1.50;;
4021;SDS011;2025;48.260;16.432;2022-08-03T10:12:41;2.30;;;1.60;;
4021;SDS011;2025;48.260;16.432;2022-08-03T10:15:09;3.33;;;1.38;;
4021;SDS011;2025;48.260;16.432;2022-08-03T10:17:36;4.07;;;1.30;;
4021;SDS011;2025;48.260;16.432;2022-08-03T10:20:07;7.32;;;1.60;;
4021;SDS011;2025;48.260;16.432;2022-08-03T10:22:35;2.20;;;1.30;;
4021;SDS011;2025;48.260;16.432;2022-08-03T10:25:07;3.78;;;1.48;;
4021;SDS011;2025;48.260;16.432;2022-08-03T10:27:38;1.80;;;1.30;;
4021;SDS011;2025;48.260;16.432;2022-08-03T10:30:09;2.08;;;1.33;;
4021;SDS011;2025;48.260;16.432;2022-08-03T10:32:37;1.33;;;1.20;;
4021;SDS011;2025;48.260;16.432;2022-08-03T10:35:08;1.65;;;1.38;;
4021;SDS011;2025;48.260;16.432;2022-08-03T10:37:39;1.73;;;1.30;;
4021;SDS011;2025;48.260;16.432;2022-08-03T10:40:11;3.20;;;1.20;;
4021;SDS011;2025;48.260;16.432;2022-08-03T10:42:40;1.15;;;1.00;;
4021;SDS011;2025;48.260;16.432;2022-08-03T10:45:12;2.30;;;1.05;;
4021;SDS011;2025;48.260;16.432;2022-08-03T10:47:45;4.18;;;1.50;;
4021;SDS011;2025;48.260;16.432;2022-08-03T10:50:13;1.60;;;1.20;;
4021;SDS011;2025;48.260;16.432;2022-08-03T10:52:53;3.97;;;1.33;;
4021;SDS011;2025;48.260;16.432;2022-08-03T10:55:32;1.25;;;1.20;;
4021;SDS011;2025;48.260;16.432;2022-08-03T11:01:19;2.80;;;1.00;;
4021;SDS011;2025;48.260;16.432;2022-08-03T11:04:18;1.85;;;1.08;;
4021;SDS011;2025;48.260;16.432;2022-08-03T11:06:46;1.00;;;1.00;;
4021;SDS011;2025;48.260;16.432;2022-08-03T11:09:14;1.50;;;1.10;;
4021;SDS011;2025;48.260;16.432;2022-08-03T11:15:08;2.65;;;1.20;;
4021;SDS011;2025;48.260;16.432;2022-08-03T11:17:36;2.45;;;1.20;;
4021;SDS011;2025;48.260;16.432;2022-08-03T11:20:25;2.30;;;0.98;;
4021;SDS011;2025;48.260;16.432;2022-08-03T11:23:07;1.73;;;1.20;;
4021;SDS011;2025;48.260;16.432;2022-08-03T11:28:39;1.02;;;0.95;;
4021;SDS011;2025;48.260;16.432;2022-08-03T11:34:21;2.22;;;1.20;;
4021;SDS011;2025;48.260;16.432;2022-08-03T11:39:51;1.13;;;1.13;;
4021;SDS011;2025;48.260;16.432;2022-08-03T11:45:12;2.50;;;1.30;;
4021;SDS011;2025;48.260;16.432;2022-08-03T11:47:40;3.85;;;1.00;;
4021;SDS011;2025;48.260;16.432;2022-08-03T11:50:09;3.53;;;1.00;;
4021;SDS011;2025;48.260;16.432;2022-08-03T11:52:37;2.03;;;1.35;;
4021;SDS011;2025;48.260;16.432;2022-08-03T11:55:09;0.95;;;0.95;;
4021;SDS011;2025;48.260;16.432;2022-08-03T11:57:38;1.30;;;1.25;;
4021;SDS011;2025;48.260;16.432;2022-08-03T12:03:03;3.15;;;1.10;;
4021;SDS011;2025;48.260;16.432;2022-08-03T12:05:33;2.75;;;1.15;;
4021;SDS011;2025;48.260;16.432;2022-08-03T12:08:28;0.82;;;0.82;;
4021;SDS011;2025;48.260;16.432;2022-08-03T12:10:56;29.65;;;1.67;;
4021;SDS011;2025;48.260;16.432;2022-08-03T12:13:24;1.00;;;1.00;;
4021;SDS011;2025;48.260;16.432;2022-08-03T12:15:52;2.45;;;0.90;;
4021;SDS011;2025;48.260;16.432;2022-08-03T12:18:20;4.70;;;1.17;;
4021;SDS011;2025;48.260;16.432;2022-08-03T12:20:50;1.23;;;1.23;;
4021;SDS011;2025;48.260;16.432;2022-08-03T12:23:18;3.38;;;1.10;;
4021;SDS011;2025;48.260;16.432;2022-08-03T12:25:46;4.40;;;1.27;;
4021;SDS011;2025;48.260;16.432;2022-08-03T12:28:15;3.80;;;1.20;;
4021;SDS011;2025;48.260;16.432;2022-08-03T12:30:44;1.65;;;1.17;;
4021;SDS011;2025;48.260;16.432;2022-08-03T12:33:13;3.13;;;1.13;;
4021;SDS011;2025;48.260;16.432;2022-08-03T12:35:48;1.40;;;1.10;;
4021;SDS011;2025;48.260;16.432;2022-08-03T12:38:31;1.15;;;1.10;;
4021;SDS011;2025;48.260;16.432;2022-08-03T12:41:00;1.67;;;1.00;;
4021;SDS011;2025;48.260;16.432;2022-08-03T12:43:32;3.92;;;1.08;;
4021;SDS011;2025;48.260;16.432;2022-08-03T12:46:07;4.00;;;1.02;;
4021;SDS011;2025;48.260;16.432;2022-08-03T12:51:36;3.97;;;1.00;;
4021;SDS011;2025;48.260;16.432;2022-08-03T12:54:36;4.00;;;0.90;;
4021;SDS011;2025;48.260;16.432;2022-08-03T12:57:04;3.17;;;0.90;;
4021;SDS011;2025;48.260;16.432;2022-08-03T12:59:33;1.83;;;0.95;;
4021;SDS011;2025;48.260;16.432;2022-08-03T13:02:01;3.10;;;0.77;;
4021;SDS011;2025;48.260;16.432;2022-08-03T13:04:31;1.13;;;1.13;;
4021;SDS011;2025;48.260;16.432;2022-08-03T13:07:01;1.95;;;0.98;;
4021;SDS011;2025;48.260;16.432;2022-08-03T13:09:29;3.80;;;1.20;;
4021;SDS011;2025;48.260;16.432;2022-08-03T13:12:07;4.32;;;1.20;;
4021;SDS011;2025;48.260;16.432;2022-08-03T13:14:35;1.10;;;1.10;;
4021;SDS011;2025;48.260;16.432;2022-08-03T13:17:03;1.33;;;0.80;;
4021;SDS011;2025;48.260;16.432;2022-08-03T13:19:33;4.18;;;1.17;;
4021;SDS011;2025;48.260;16.432;2022-08-03T13:22:13;2.38;;;1.00;;
4021;SDS011;2025;48.260;16.432;2022-08-03T13:24:41;2.05;;;1.15;;
4021;SDS011;2025;48.260;16.432;2022-08-03T13:27:09;1.15;;;1.00;;
4021;SDS011;2025;48.260;16.432;2022-08-03T13:29:37;1.95;;;1.10;;
4021;SDS011;2025;48.260;16.432;2022-08-03T13:32:24;1.48;;;0.90;;
4021;SDS011;2025;48.260;16.432;2022-08-03T13:34:58;2.95;;;1.00;;
4021;SDS011;2025;48.260;16.432;2022-08-03T13:37:28;1.20;;;1.10;;
4021;SDS011;2025;48.260;16.432;2022-08-03T13:39:56;2.25;;;1.20;;
4021;SDS011;2025;48.260;16.432;2022-08-03T13:42:23;3.53;;;1.05;;
4021;SDS011;2025;48.260;16.432;2022-08-03T13:44:50;0.95;;;0.80;;
4021;SDS011;2025;48.260;16.432;2022-08-03T13:47:19;2.95;;;1.10;;
4021;SDS011;2025;48.260;16.432;2022-08-03T13:49:55;2.55;;;1.08;;
4021;SDS011;2025;48.260;16.432;2022-08-03T13:52:22;4.13;;;1.00;;
4021;SDS011;2025;48.260;16.432;2022-08-03T13:54:51;3.42;;;1.15;;
4021;SDS011;2025;48.260;16.432;2022-08-03T13:57:18;1.00;;;0.93;;
4021;SDS011;2025;48.260;16.432;2022-08-03T13:59:45;3.38;;;0.88;;
4021;SDS011;2025;48.260;16.432;2022-08-03T14:02:13;1.65;;;1.05;;
4021;SDS011;2025;48.260;16.432;2022-08-03T14:04:42;3.55;;;1.05;;
4021;SDS011;2025;48.260;16.432;2022-08-03T14:07:21;5.10;;;1.20;;
4021;SDS011;2025;48.260;16.432;2022-08-03T14:09:48;1.38;;;0.85;;
4021;SDS011;2025;48.260;16.432;2022-08-03T14:12:17;1.25;;;1.10;;
4021;SDS011;2025;48.260;16.432;2022-08-03T14:14:44;4.15;;;1.02;;
4021;SDS011;2025;48.260;16.432;2022-08-03T14:17:11;1.10;;;0.82;;
4021;SDS011;2025;48.260;16.432;2022-08-03T14:19:38;4.90;;;0.90;;
4021;SDS011;2025;48.260;16.432;2022-08-03T14:22:05;1.80;;;0.90;;
4021;SDS011;2025;48.260;16.432;2022-08-03T14:24:32;1.92;;;0.95;;
4021;SDS011;2025;48.260;16.432;2022-08-03T14:27:00;2.20;;;1.30;;
4021;SDS011;2025;48.260;16.432;2022-08-03T14:29:27;2.05;;;1.00;;
4021;SDS011;2025;48.260;16.432;2022-08-03T14:31:54;2.35;;;1.10;;
4021;SDS011;2025;48.260;16.432;2022-08-03T14:34:21;2.50;;;1.10;;
4021;SDS011;2025;48.260;16.432;2022-08-03T14:36:50;1.27;;;1.05;;
4021;SDS011;2025;48.260;16.432;2022-08-03T14:39:17;1.02;;;0.93;;
4021;SDS011;2025;48.260;16.432;2022-08-03T14:41:44;4.43;;;1.00;;
4021;SDS011;2025;48.260;16.432;2022-08-03T14:44:12;1.00;;;1.00;;
4021;SDS011;2025;48.260;16.432;2022-08-03T14:46:42;1.38;;;1.13;;
4021;SDS011;2025;48.260;16.432;2022-08-03T14:49:18;2.03;;;1.00;;
4021;SDS011;2025;48.260;16.432;2022-08-03T14:51:46;5.82;;;0.90;;
4021;SDS011;2025;48.260;16.432;2022-08-03T14:54:13;6.45;;;0.93;;
4021;SDS011;2025;48.260;16.432;2022-08-03T14:56:40;1.55;;;1.15;;
4021;SDS011;2025;48.260;16.432;2022-08-03T14:59:07;7.85;;;1.08;;
4021;SDS011;2025;48.260;16.432;2022-08-03T15:01:36;3.72;;;1.25;;
4021;SDS011;2025;48.260;16.432;2022-08-03T15:04:03;2.25;;;1.02;;
4021;SDS011;2025;48.260;16.432;2022-08-03T15:06:30;2.40;;;1.10;;
4021;SDS011;2025;48.260;16.432;2022-08-03T15:08:57;6.60;;;1.10;;
4021;SDS011;2025;48.260;16.432;2022-08-03T15:11:24;2.03;;;1.17;;
4021;SDS011;2025;48.260;16.432;2022-08-03T15:13:50;3.53;;;1.05;;
4021;SDS011;2025;48.260;16.432;2022-08-03T15:16:17;3.83;;;1.10;;
4021;SDS011;2025;48.260;16.432;2022-08-03T15:18:46;5.70;;;1.10;;
4021;SDS011;2025;48.260;16.432;2022-08-03T15:21:13;1.55;;;1.23;;
4021;SDS011;2025;48.260;16.432;2022-08-03T15:23:40;3.72;;;1.25;;
4021;SDS011;2025;48.260;16.432;2022-08-03T15:26:09;0.90;;;0.90;;
4021;SDS011;2025;48.260;16.432;2022-08-03T15:28:36;1.00;;;0.90;;
4021;SDS011;2025;48.260;16.432;2022-08-03T15:31:03;3.40;;;1.10;;
4021;SDS011;2025;48.260;16.432;2022-08-03T15:33:31;6.82;;;1.25;;
4021;SDS011;2025;48.260;16.432;2022-08-03T15:36:00;6.07;;;1.20;;
4021;SDS011;2025;48.260;16.432;2022-08-03T15:38:27;8.55;;;1.30;;
4021;SDS011;2025;48.260;16.432;2022-08-03T15:40:54;8.05;;;1.10;;
4021;SDS011;2025;48.260;16.432;2022-08-03T15:43:29;2.72;;;1.05;;
4021;SDS011;2025;48.260;16.432;2022-08-03T15:45:56;6.07;;;1.20;;